Time;durP1;ratioP1;P1;durP2;ratioP2;P2;SDS_P1;SDS_P2;PMS_P1;PMS_P2;Temp;Humidity;BMP_temperature;BMP_pressure;BME280_temperature;BME280_humidity;BME280_pressure;Samples;Min_cycle;Max_cycle;Signal;HPM_P1;HPM_P2
2022/03/10 00:00:00;;;;;;;3.70;2.70;;;21.70;52.00;;;;;;5031855;28;20425;-90
2022/03/10 00:02:25;;;;;;;2.10;1.90;;;21.70;52.00;;;;;;5032594;28;20425;-90
2022/03/10 00:04:51;;;;;;;2.93;2.60;;;21.70;52.00;;;;;;5049520;28;20179;-91
2022/03/10 00:07:17;;;;;;;3.50;2.00;;;21.70;52.00;;;;;;5049149;28;20206;-90
2022/03/10 00:09:43;;;;;;;2.57;2.20;;;21.70;52.00;;;;;;5043493;28;20644;-91
2022/03/10 00:12:09;;;;;;;2.90;2.30;;;21.70;52.00;;;;;;5032477;28;20502;-90
2022/03/10 00:14:35;;;;;;;2.90;2.23;;;21.70;52.00;;;;;;5049954;28;20203;-90
2022/03/10 00:17:01;;;;;;;2.50;2.00;;;21.70;52.00;;;;;;5045268;28;20430;-90
2022/03/10 00:19:27;;;;;;;2.47;2.23;;;21.70;52.00;;;;;;5049944;28;20641;-91
2022/03/10 00:21:52;;;;;;;3.50;2.70;;;21.70;52.00;;;;;;5043468;28;20179;-90
2022/03/10 00:24:18;;;;;;;2.47;2.07;;;21.70;52.00;;;;;;5031787;28;20183;-90
2022/03/10 00:26:45;;;;;;;3.10;2.40;;;21.70;52.00;;;;;;5031342;28;20183;-91
2022/03/10 00:29:10;;;;;;;2.87;2.03;;;21.70;52.00;;;;;;5040635;28;20184;-90
2022/03/10 00:31:36;;;;;;;2.83;2.40;;;21.70;52.60;;;;;;5043764;28;20533;-90
2022/03/10 00:34:02;;;;;;;3.57;2.40;;;21.60;52.50;;;;;;5026714;28;20178;-89
2022/03/10 00:36:28;;;;;;;3.00;2.70;;;21.60;52.00;;;;;;5048894;28;20477;-90
2022/03/10 00:38:54;;;;;;;3.50;2.67;;;21.60;52.00;;;;;;5042797;28;20186;-90
2022/03/10 00:41:21;;;;;;;3.10;2.67;;;21.60;52.00;;;;;;5031525;28;20418;-91
2022/03/10 00:43:47;;;;;;;2.80;2.07;;;21.60;52.00;;;;;;5043215;28;20211;-90
2022/03/10 00:46:12;;;;;;;2.40;2.20;;;21.60;52.50;;;;;;5048698;28;20422;-90
2022/03/10 00:48:38;;;;;;;2.63;2.20;;;21.60;52.00;;;;;;5032294;28;20446;-91
2022/03/10 00:51:05;;;;;;;2.50;2.30;;;21.60;52.00;;;;;;5042584;28;20214;-90
2022/03/10 00:53:30;;;;;;;3.03;2.40;;;21.60;52.00;;;;;;5027731;28;20423;-90
2022/03/10 00:55:56;;;;;;;2.50;2.30;;;21.60;52.00;;;;;;5031741;28;20490;-90
2022/03/10 00:58:22;;;;;;;2.33;2.13;;;21.60;52.00;;;;;;5049090;28;20214;-90
2022/03/10 01:00:48;;;;;;;2.50;2.30;;;21.60;52.00;;;;;;5048813;28;20182;-91
2022/03/10 01:03:13;;;;;;;2.83;2.53;;;21.60;52.00;;;;;;5028774;28;20183;-90
2022/03/10 01:05:39;;;;;;;2.67;2.40;;;21.60;52.00;;;;;;5042344;28;20211;-90
2022/03/10 01:08:05;;;;;;;2.47;2.17;;;21.60;52.00;;;;;;5043731;28;20210;-90
2022/03/10 01:10:31;;;;;;;2.73;2.40;;;21.60;52.00;;;;;;5044407;28;20214;-90
2022/03/10 01:12:57;;;;;;;2.43;2.10;;;21.60;52.00;;;;;;5048006;28;20184;-91
2022/03/10 01:18:45;;;;;;;3.60;2.33;;;21.60;52.00;;;;;;5044593;28;20175;-90
2022/03/10 01:21:12;;;;;;;2.60;2.40;;;21.50;52.00;;;;;;5043225;28;20533;-90
2022/03/10 01:23:38;;;;;;;2.50;2.27;;;21.50;52.00;;;;;;5043277;28;20227;-90
2022/03/10 01:26:03;;;;;;;2.60;2.33;;;21.50;52.00;;;;;;5048472;28;20426;-90
2022/03/10 01:28:29;;;;;;;3.13;2.23;;;21.50;52.00;;;;;;5030737;28;20450;-90
2022/03/10 01:30:55;;;;;;;3.63;2.60;;;21.50;52.00;;;;;;5030840;28;20596;-90
2022/03/10 01:33:21;;;;;;;3.03;2.73;;;21.50;52.00;;;;;;5044663;28;20234;-90
2022/03/10 01:35:46;;;;;;;4.20;3.03;;;21.50;52.00;;;;;;5048805;28;20239;-90
2022/03/10 01:41:35;;;;;;;3.97;3.30;;;21.50;52.00;;;;;;5049505;28;20167;-90
2022/03/10 01:44:02;;;;;;;4.80;3.90;;;21.50;52.00;;;;;;5031863;28;20497;-89
2022/03/10 01:46:30;;;;;;;4.00;2.97;;;21.50;52.00;;;;;;5047756;28;20418;-89
2022/03/10 01:48:55;;;;;;;3.97;3.47;;;21.50;52.00;;;;;;5049398;28;20429;-89
2022/03/10 01:51:23;;;;;;;4.80;3.20;;;21.50;52.00;;;;;;5048017;28;20465;-90
2022/03/10 01:53:50;;;;;;;3.40;3.10;;;21.50;52.00;;;;;;5048137;28;20490;-89
2022/03/10 01:56:17;;;;;;;3.77;3.10;;;21.50;52.00;;;;;;5031084;28;20442;-89
2022/03/10 01:58:43;;;;;;;3.60;3.30;;;21.50;52.00;;;;;;5049159;28;20391;-88
2022/03/10 02:01:10;;;;;;;3.50;2.90;;;21.50;52.00;;;;;;5047149;28;20426;-90
2022/03/10 02:03:37;;;;;;;4.83;2.80;;;21.50;52.00;;;;;;5047111;28;20422;-91
2022/03/10 02:06:04;;;;;;;3.67;3.13;;;21.50;52.00;;;;;;5047823;28;20792;-89
2022/03/10 02:11:14;;;;;;;3.03;2.73;;;21.50;52.00;;;;;;5048667;28;20465;-89
2022/03/10 02:13:40;;;;;;;4.00;3.30;;;21.50;52.00;;;;;;5047552;28;20924;-90
2022/03/10 02:18:55;;;;;;;4.73;4.03;;;21.50;52.00;;;;;;5047905;28;20229;-90
2022/03/10 02:21:21;;;;;;;3.90;3.60;;;21.40;51.90;;;;;;5048094;28;20415;-90
2022/03/10 02:23:46;;;;;;;3.43;3.10;;;21.40;51.90;;;;;;5030529;28;20176;-90
2022/03/10 02:26:12;;;;;;;4.20;3.20;;;21.40;51.90;;;;;;5047899;28;20421;-91
2022/03/10 02:28:40;;;;;;;3.57;3.23;;;21.50;52.00;;;;;;5029958;28;20637;-90
2022/03/10 02:31:06;;;;;;;3.77;3.10;;;21.40;51.90;;;;;;5048230;28;20489;-90
2022/03/10 02:33:32;;;;;;;3.80;3.27;;;21.40;51.90;;;;;;5047916;28;20406;-90
2022/03/10 02:35:58;;;;;;;3.53;3.20;;;21.40;51.80;;;;;;5030016;28;20419;-90
2022/03/10 02:38:24;;;;;;;3.90;3.50;;;21.40;51.80;;;;;;5047996;28;20433;-89
2022/03/10 02:40:51;;;;;;;4.37;3.67;;;21.40;51.80;;;;;;5048177;28;20182;-89
2022/03/10 02:43:18;;;;;;;3.60;2.80;;;21.40;51.80;;;;;;5029782;28;20521;-90
2022/03/10 02:45:45;;;;;;;5.93;4.40;;;21.40;51.80;;;;;;5031014;28;20422;-90
2022/03/10 02:48:12;;;;;;;4.80;4.40;;;21.40;51.80;;;;;;5030370;28;20423;-89
2022/03/10 02:50:41;;;;;;;4.87;3.40;;;21.40;51.80;;;;;;5030118;28;20499;-90
2022/03/10 02:53:07;;;;;;;5.63;4.30;;;21.40;51.80;;;;;;5047711;28;20992;-90
2022/03/10 02:55:32;;;;;;;4.13;3.73;;;21.40;51.80;;;;;;5030144;28;20411;-90
2022/03/10 02:57:58;;;;;;;4.17;3.37;;;21.40;51.80;;;;;;5030467;28;20229;-90
2022/03/10 03:00:24;;;;;;;4.17;3.63;;;21.40;51.80;;;;;;5047922;28;20182;-89
2022/03/10 03:02:50;;;;;;;3.80;3.47;;;21.40;51.80;;;;;;5029927;28;20192;-90
2022/03/10 03:05:16;;;;;;;4.17;3.77;;;21.40;51.80;;;;;;5047171;28;20418;-91
2022/03/10 03:07:44;;;;;;;3.83;3.40;;;21.40;51.80;;;;;;5029714;28;20180;-90
2022/03/10 03:10:10;;;;;;;4.50;3.60;;;21.40;51.80;;;;;;5029920;28;20461;-90
2022/03/10 03:12:44;;;;;;;4.00;3.60;;;21.40;51.80;;;;;;5043882;28;20441;-90
2022/03/10 03:15:10;;;;;;;3.97;3.33;;;21.40;51.80;;;;;;5027493;28;20399;-90
2022/03/10 03:17:35;;;;;;;4.37;3.70;;;21.40;51.80;;;;;;5011285;28;20411;-90
2022/03/10 03:20:03;;;;;;;4.10;3.50;;;21.40;52.10;;;;;;5009781;28;20172;-90
2022/03/10 03:22:31;;;;;;;3.80;3.40;;;21.40;51.80;;;;;;5010142;28;20172;-90
2022/03/10 03:24:56;;;;;;;4.00;3.60;;;21.40;51.80;;;;;;5027750;28;20422;-90
2022/03/10 03:27:22;;;;;;;3.60;3.27;;;21.40;51.80;;;;;;5027266;28;20459;-90
2022/03/10 03:29:48;;;;;;;4.00;3.60;;;21.40;51.80;;;;;;5009386;28;20423;-90
2022/03/10 03:32:14;;;;;;;3.90;3.40;;;21.40;51.80;;;;;;5009908;28;20177;-90
2022/03/10 03:34:39;;;;;;;3.90;3.60;;;21.40;51.70;;;;;;5009507;28;20657;-90
2022/03/10 03:37:05;;;;;;;3.73;3.43;;;21.40;51.80;;;;;;5027953;28;20173;-90
2022/03/10 03:39:32;;;;;;;3.77;3.40;;;21.40;51.80;;;;;;5010260;28;20661;-90
2022/03/10 03:41:58;;;;;;;4.50;3.63;;;21.40;51.80;;;;;;5010042;28;20233;-90
2022/03/10 03:44:24;;;;;;;3.70;3.40;;;21.30;51.70;;;;;;5010176;28;20474;-90
2022/03/10 03:46:50;;;;;;;3.77;3.20;;;21.40;51.80;;;;;;5027817;28;20453;-90
2022/03/10 03:49:16;;;;;;;4.10;3.33;;;21.40;51.80;;;;;;5009981;28;20213;-90
2022/03/10 03:51:41;;;;;;;4.27;3.20;;;21.40;51.80;;;;;;5027783;28;20230;-90
2022/03/10 03:54:07;;;;;;;3.97;3.67;;;21.30;51.70;;;;;;5010394;28;20536;-90
2022/03/10 03:56:37;;;;;;;3.00;2.80;;;21.30;51.70;;;;;;5026828;28;20192;-90
2022/03/10 03:59:03;;;;;;;3.30;3.00;;;21.40;51.80;;;;;;5009788;28;20184;-90
2022/03/10 04:01:29;;;;;;;4.70;3.90;;;21.40;51.80;;;;;;5009564;28;20423;-90
2022/03/10 04:03:55;;;;;;;3.47;3.17;;;21.30;51.70;;;;;;5009296;28;20488;-90
2022/03/10 04:06:22;;;;;;;3.60;3.10;;;21.30;51.70;;;;;;5026662;28;20482;-90
2022/03/10 04:08:48;;;;;;;3.83;3.00;;;21.30;51.70;;;;;;5008902;28;20422;-89
2022/03/10 04:11:14;;;;;;;3.40;3.10;;;21.30;51.70;;;;;;5027098;28;20454;-90
2022/03/10 04:13:40;;;;;;;3.60;3.30;;;21.30;51.70;;;;;;5025160;28;20434;-91
2022/03/10 04:16:06;;;;;;;3.10;2.80;;;21.30;51.70;;;;;;5026084;28;20177;-90
2022/03/10 04:18:32;;;;;;;3.90;3.00;;;21.40;51.80;;;;;;5010201;28;20408;-90
2022/03/10 04:21:00;;;;;;;3.50;3.20;;;21.30;51.70;;;;;;5009351;28;20419;-90
2022/03/10 04:23:29;;;;;;;3.63;3.20;;;21.30;51.60;;;;;;5008712;28;20487;-90
2022/03/10 04:25:55;;;;;;;3.33;3.03;;;21.30;51.70;;;;;;5030148;28;20415;-91
2022/03/10 04:28:24;;;;;;;3.87;3.20;;;21.30;51.70;;;;;;5012862;28;20419;-90
2022/03/10 04:30:50;;;;;;;4.30;3.10;;;21.30;51.70;;;;;;5013029;28;20454;-90
2022/03/10 04:33:16;;;;;;;3.27;2.97;;;21.30;51.60;;;;;;5013588;28;20424;-91
2022/03/10 04:35:43;;;;;;;3.43;3.13;;;21.30;51.70;;;;;;5030571;28;20469;-90
2022/03/10 04:38:10;;;;;;;3.90;3.50;;;21.30;51.70;;;;;;5013897;28;20419;-91
2022/03/10 04:40:37;;;;;;;3.30;2.60;;;21.30;51.70;;;;;;5012520;28;20419;-90
2022/03/10 04:43:03;;;;;;;3.40;3.10;;;21.30;51.70;;;;;;5030085;28;20418;-90
2022/03/10 04:45:29;;;;;;;3.53;3.23;;;21.30;51.70;;;;;;5030143;28;20499;-89
2022/03/10 04:47:55;;;;;;;3.40;3.10;;;21.30;51.60;;;;;;5012482;28;20416;-90
2022/03/10 04:50:20;;;;;;;3.83;3.23;;;21.30;51.60;;;;;;5012384;28;20206;-90
2022/03/10 04:52:46;;;;;;;4.50;3.90;;;21.30;51.60;;;;;;5012606;28;20530;-90
2022/03/10 04:55:13;;;;;;;3.57;2.90;;;21.30;51.60;;;;;;5028864;28;20230;-90
2022/03/10 04:57:40;;;;;;;3.63;3.33;;;21.30;51.60;;;;;;5028858;28;20490;-90
2022/03/10 05:00:10;;;;;;;4.90;3.33;;;21.30;51.50;;;;;;5012665;28;20474;-89
2022/03/10 05:02:37;;;;;;;3.87;3.47;;;21.30;51.50;;;;;;5012676;28;20415;-90
2022/03/10 05:05:03;;;;;;;4.27;3.53;;;21.30;51.50;;;;;;5029869;28;20475;-90
2022/03/10 05:07:29;;;;;;;3.20;2.90;;;21.30;51.40;;;;;;5029962;28;20407;-89
2022/03/10 05:13:17;;;;;;;3.70;3.33;;;21.30;51.40;;;;;;5029823;28;20152;-90
2022/03/10 05:15:43;;;;;;;4.40;3.83;;;21.30;52.00;;;;;;5012617;28;20431;-90
2022/03/10 05:18:09;;;;;;;4.33;3.60;;;21.20;51.40;;;;;;5011197;28;20191;-89
2022/03/10 05:20:35;;;;;;;3.90;3.50;;;21.20;51.40;;;;;;5028373;28;20476;-90
2022/03/10 05:23:03;;;;;;;4.63;3.37;;;21.20;51.40;;;;;;5028427;28;20187;-89
2022/03/10 05:25:37;;;;;;;4.53;3.20;;;21.30;51.50;;;;;;5012105;28;20191;-89
2022/03/10 05:28:04;;;;;;;4.17;3.60;;;21.20;51.40;;;;;;5028494;28;20423;-90
2022/03/10 05:30:29;;;;;;;4.00;3.23;;;21.20;51.40;;;;;;5011207;28;20486;-89
2022/03/10 05:32:56;;;;;;;3.73;3.20;;;21.20;51.40;;;;;;5010958;28;20424;-90
2022/03/10 05:35:22;;;;;;;3.50;3.20;;;21.20;51.50;;;;;;5011815;28;20191;-90
2022/03/10 05:37:48;;;;;;;3.97;3.27;;;21.20;51.50;;;;;;5028438;28;20412;-91
2022/03/10 05:40:18;;;;;;;4.40;3.23;;;21.20;51.50;;;;;;5011176;28;20469;-90
2022/03/10 05:42:45;;;;;;;3.07;2.57;;;21.20;51.50;;;;;;5011106;28;20431;-91
2022/03/10 05:45:19;;;;;;;3.07;2.77;;;21.30;51.60;;;;;;5011133;28;20419;-89
2022/03/10 05:47:46;;;;;;;2.90;2.70;;;21.30;51.60;;;;;;5010262;28;20427;-89
2022/03/10 05:50:12;;;;;;;3.80;3.20;;;21.30;51.70;;;;;;5011276;28;20459;-90
2022/03/10 05:52:37;;;;;;;3.23;2.90;;;21.30;51.70;;;;;;5016117;28;20489;-90
2022/03/10 05:55:05;;;;;;;3.30;3.00;;;21.30;51.60;;;;;;5019103;28;20176;-90
2022/03/10 05:57:33;;;;;;;4.07;3.33;;;21.30;51.60;;;;;;5028148;28;20184;-90
2022/03/10 05:59:59;;;;;;;4.17;3.50;;;21.30;51.60;;;;;;5026621;28;20829;-90
2022/03/10 06:02:25;;;;;;;4.00;2.87;;;21.30;51.60;;;;;;5027741;28;20411;-91
2022/03/10 06:04:51;;;;;;;3.03;2.70;;;21.30;51.60;;;;;;5009838;28;20426;-91
2022/03/10 06:07:20;;;;;;;3.63;3.33;;;21.30;51.60;;;;;;5027455;28;20196;-90
2022/03/10 06:09:45;;;;;;;3.27;2.97;;;21.30;51.60;;;;;;5028167;28;20204;-90
2022/03/10 06:12:11;;;;;;;5.30;3.20;;;21.30;51.60;;;;;;5028078;28;20490;-90
2022/03/10 06:14:37;;;;;;;3.50;3.20;;;21.40;51.70;;;;;;5026847;28;20202;-90
2022/03/10 06:17:03;;;;;;;3.63;3.20;;;21.40;51.70;;;;;;5029034;28;20183;-89
2022/03/10 06:19:29;;;;;;;5.03;3.20;;;21.40;51.70;;;;;;5010450;28;20176;-90
2022/03/10 06:21:55;;;;;;;3.50;3.20;;;21.40;51.70;;;;;;5010321;28;20426;-91
2022/03/10 06:24:26;;;;;;;3.67;3.00;;;21.40;51.70;;;;;;5026887;28;20578;-90
2022/03/10 06:26:51;;;;;;;3.83;3.27;;;21.40;51.70;;;;;;5011198;28;20172;-90
2022/03/10 06:29:17;;;;;;;3.47;3.17;;;21.40;51.70;;;;;;5011027;28;20423;-90
2022/03/10 06:31:43;;;;;;;3.43;3.00;;;21.40;51.70;;;;;;5027620;28;20204;-90
2022/03/10 06:34:09;;;;;;;4.60;3.23;;;21.40;51.70;;;;;;5027733;28;20224;-90
2022/03/10 06:36:35;;;;;;;3.30;2.93;;;21.50;51.70;;;;;;5010239;28;20416;-90
2022/03/10 06:39:23;;;;;;;4.30;3.00;;;21.50;51.70;;;;;;5010284;28;20509;-90
2022/03/10 06:41:48;;;;;;;4.60;3.00;;;21.50;51.70;;;;;;5009982;28;20623;-90
2022/03/10 06:44:14;;;;;;;5.40;3.20;;;21.50;51.60;;;;;;5010018;28;20424;-90
2022/03/10 06:46:42;;;;;;;3.47;3.10;;;21.50;51.70;;;;;;5009636;28;20184;-91
2022/03/10 06:49:08;;;;;;;3.43;2.93;;;21.50;51.60;;;;;;5026428;28;20192;-90
2022/03/10 06:51:34;;;;;;;3.17;2.90;;;21.50;51.60;;;;;;5026620;28;20470;-90
2022/03/10 06:54:00;;;;;;;4.90;2.70;;;21.60;51.70;;;;;;5010565;28;20176;-91
2022/03/10 06:56:25;;;;;;;4.03;2.80;;;21.60;51.70;;;;;;5010147;28;20218;-89
2022/03/10 06:58:51;;;;;;;4.07;3.27;;;21.60;51.70;;;;;;5010477;28;20187;-89
2022/03/10 07:01:18;;;;;;;3.37;2.97;;;21.60;51.70;;;;;;5009322;28;20203;-89
2022/03/10 07:03:43;;;;;;;2.60;2.40;;;21.60;51.60;;;;;;5026452;28;20190;-89
2022/03/10 07:06:09;;;;;;;4.23;2.83;;;21.60;51.60;;;;;;5010148;28;20513;-89
2022/03/10 07:08:37;;;;;;;4.50;3.40;;;21.60;51.60;;;;;;5027334;28;20172;-89
2022/03/10 07:11:03;;;;;;;4.30;3.00;;;21.60;51.60;;;;;;5024546;28;20207;-90
2022/03/10 07:13:29;;;;;;;4.93;2.83;;;21.60;51.60;;;;;;5046607;28;20486;-89
2022/03/10 07:16:07;;;;;;;3.50;2.90;;;21.70;51.60;;;;;;5046171;28;20494;-89
2022/03/10 07:18:32;;;;;;;4.07;2.63;;;21.70;51.60;;;;;;5045650;28;20178;-90
2022/03/10 07:20:59;;;;;;;4.00;3.63;;;21.70;51.60;;;;;;5028925;28;20426;-89
2022/03/10 07:23:25;;;;;;;2.70;2.50;;;21.70;51.60;;;;;;5044934;28;20182;-90
2022/03/10 07:25:50;;;;;;;2.60;2.37;;;21.70;51.60;;;;;;5045911;28;20446;-89
2022/03/10 07:28:16;;;;;;;3.40;2.60;;;21.70;51.60;;;;;;5047147;28;20653;-90
2022/03/10 07:30:42;;;;;;;3.47;2.80;;;21.70;51.60;;;;;;5046166;28;20206;-90
2022/03/10 07:33:10;;;;;;;3.40;3.10;;;21.80;51.70;;;;;;5028029;28;20716;-90
2022/03/10 07:35:36;;;;;;;4.20;2.83;;;21.70;51.60;;;;;;5028664;28;20210;-90
2022/03/10 07:38:01;;;;;;;3.63;3.10;;;21.70;51.60;;;;;;5028607;28;20415;-89
2022/03/10 07:40:30;;;;;;;3.20;2.60;;;21.80;51.60;;;;;;5029576;28;20180;-90
2022/03/10 07:42:55;;;;;;;3.53;2.87;;;21.80;51.60;;;;;;5045942;28;20237;-89
2022/03/10 07:45:21;;;;;;;5.40;3.10;;;21.80;51.60;;;;;;5020274;28;20458;-90
2022/03/10 07:47:47;;;;;;;4.00;3.20;;;21.80;51.60;;;;;;5010067;28;20207;-90
2022/03/10 07:50:13;;;;;;;3.47;2.27;;;21.80;51.60;;;;;;5008972;28;20450;-90
2022/03/10 07:52:41;;;;;;;2.60;2.40;;;21.80;51.60;;;;;;5027570;28;20701;-90
2022/03/10 07:55:13;;;;;;;2.80;2.60;;;21.80;51.60;;;;;;5009739;28;20180;-89
2022/03/10 07:57:39;;;;;;;2.87;2.67;;;21.80;51.60;;;;;;5028236;28;20502;-89
2022/03/10 08:00:20;;;;;;;2.80;2.57;;;21.80;51.60;;;;;;5012281;28;20447;-89
2022/03/10 08:03:13;;;;;;;;;;;;;;;;;;;;;
2022/03/10 08:05:50;;;;;;;2.50;2.27;;;21.80;51.60;;;;;;5043720;28;20442;-89
2022/03/10 08:08:20;;;;;;;2.70;2.50;;;21.80;52.20;;;;;;5051607;28;20391;-90
2022/03/10 08:10:48;;;;;;;2.60;2.40;;;21.80;51.60;;;;;;5033677;28;20473;-90
2022/03/10 08:13:14;;;;;;;3.60;2.73;;;21.80;51.60;;;;;;5033959;28;20424;-90
2022/03/10 08:15:42;;;;;;;3.63;2.13;;;21.80;51.60;;;;;;5043225;28;20474;-90
2022/03/10 08:18:08;;;;;;;3.90;2.63;;;21.90;51.70;;;;;;5033777;28;20421;-90
2022/03/10 08:20:39;;;;;;;2.70;2.50;;;21.90;51.70;;;;;;5030207;28;20431;-90
2022/03/10 08:23:05;;;;;;;3.03;2.63;;;21.90;51.70;;;;;;5031643;28;20156;-90
2022/03/10 08:25:30;;;;;;;2.80;2.60;;;21.90;51.70;;;;;;5014426;28;20450;-90
2022/03/10 08:27:58;;;;;;;3.47;2.87;;;21.90;51.70;;;;;;5031010;28;20419;-90
2022/03/10 08:30:24;;;;;;;3.43;2.83;;;21.90;51.70;;;;;;5031382;28;20204;-90
2022/03/10 08:32:49;;;;;;;2.53;2.30;;;21.90;51.70;;;;;;5013169;28;20445;-90
2022/03/10 08:35:16;;;;;;;2.70;2.50;;;21.90;51.70;;;;;;5012861;28;20419;-90
2022/03/10 08:37:43;;;;;;;3.13;2.60;;;21.90;51.70;;;;;;5030540;28;20177;-90
2022/03/10 08:40:11;;;;;;;3.20;2.90;;;21.90;51.70;;;;;;5013110;28;20457;-90
2022/03/10 08:42:37;;;;;;;2.70;2.50;;;21.90;51.70;;;;;;5025359;28;20415;-91
2022/03/10 08:45:03;;;;;;;2.97;2.57;;;21.90;51.70;;;;;;5032528;28;20421;-91
2022/03/10 08:47:32;;;;;;;2.87;2.57;;;21.90;51.80;;;;;;5042399;28;20414;-91
2022/03/10 08:49:58;;;;;;;3.93;2.60;;;21.90;51.80;;;;;;5050098;28;20433;-89
2022/03/10 08:52:26;;;;;;;2.57;2.00;;;21.90;51.80;;;;;;5049001;28;20414;-90
2022/03/10 08:54:52;;;;;;;3.40;2.97;;;21.90;51.80;;;;;;5050012;28;20198;-90
2022/03/10 08:57:18;;;;;;;3.40;2.70;;;21.90;51.80;;;;;;5050062;28;20517;-89
2022/03/10 08:59:45;;;;;;;3.03;2.30;;;21.90;51.90;;;;;;5049027;28;20172;-90
2022/03/10 09:02:16;;;;;;;2.50;2.30;;;21.90;51.80;;;;;;5049441;28;20410;-90
2022/03/10 09:04:51;;;;;;;4.80;2.30;;;21.90;51.90;;;;;;5012779;28;20454;-89
2022/03/10 09:07:30;;;;;;;3.53;2.50;;;21.90;51.90;;;;;;5012347;28;20403;-90
2022/03/10 09:09:58;;;;;;;3.13;2.47;;;21.90;51.90;;;;;;5023853;28;20427;-90
2022/03/10 09:12:24;;;;;;;3.70;2.63;;;21.90;51.90;;;;;;5028942;28;20411;-90
2022/03/10 09:14:53;;;;;;;3.10;2.77;;;21.90;51.90;;;;;;5012498;28;20422;-90
2022/03/10 09:17:21;;;;;;;2.60;2.37;;;21.90;51.90;;;;;;5011739;28;20447;-90
2022/03/10 09:19:49;;;;;;;3.60;2.53;;;21.90;51.90;;;;;;5012616;28;20422;-90
2022/03/10 09:22:22;;;;;;;3.03;2.70;;;21.90;51.90;;;;;;5011809;28;20768;-90
2022/03/10 09:24:53;;;;;;;3.10;2.30;;;21.90;51.90;;;;;;5031131;28;20430;-90
2022/03/10 09:27:19;;;;;;;3.23;2.50;;;21.90;51.90;;;;;;5022512;28;20420;-90
2022/03/10 09:29:45;;;;;;;2.40;2.20;;;21.90;51.90;;;;;;5012303;28;20488;-90
2022/03/10 09:32:11;;;;;;;2.80;2.30;;;21.90;52.00;;;;;;5011928;28;20212;-90
2022/03/10 09:34:38;;;;;;;2.50;2.30;;;21.90;52.00;;;;;;5012470;28;20900;-90
2022/03/10 09:37:06;;;;;;;3.20;2.83;;;21.90;52.00;;;;;;5012314;28;20506;-90
2022/03/10 09:39:32;;;;;;;2.70;2.50;;;21.90;52.00;;;;;;5011173;28;20419;-90
2022/03/10 09:42:07;;;;;;;2.90;2.47;;;21.90;52.00;;;;;;5011811;28;20430;-90
2022/03/10 09:44:35;;;;;;;2.77;2.57;;;21.90;52.00;;;;;;5011971;28;20862;-90
2022/03/10 09:47:03;;;;;;;2.43;2.23;;;21.90;52.00;;;;;;5011830;28;20423;-90
2022/03/10 09:49:33;;;;;;;3.97;2.63;;;21.90;52.00;;;;;;5029376;28;20423;-90
2022/03/10 09:51:59;;;;;;;2.43;2.23;;;21.90;52.00;;;;;;5011662;28;20474;-90
2022/03/10 09:54:25;;;;;;;2.90;2.50;;;21.90;52.00;;;;;;5011696;28;20415;-90
2022/03/10 09:56:52;;;;;;;3.20;2.50;;;21.90;52.00;;;;;;5011334;28;20203;-91
2022/03/10 09:59:23;;;;;;;2.60;2.40;;;21.90;52.00;;;;;;5011973;28;20172;-90
2022/03/10 10:01:49;;;;;;;2.37;2.17;;;21.90;52.00;;;;;;5042747;28;20446;-90
2022/03/10 10:04:15;;;;;;;3.97;2.60;;;21.90;52.00;;;;;;5013784;28;20412;-90
2022/03/10 10:07:05;;;;;;;2.50;2.30;;;21.90;52.00;;;;;;5011452;28;20420;-90
2022/03/10 10:09:44;;;;;;;3.43;2.57;;;21.90;52.00;;;;;;5031858;28;20456;-90
2022/03/10 10:12:12;;;;;;;2.67;2.43;;;21.90;52.00;;;;;;5048475;28;20507;-90
2022/03/10 10:14:42;;;;;;;2.30;2.10;;;21.90;52.70;;;;;;5031031;28;20406;-89
2022/03/10 10:17:14;;;;;;;2.17;1.97;;;21.90;52.10;;;;;;5030235;28;20417;-90
2022/03/10 10:19:42;;;;;;;3.03;2.43;;;21.90;52.10;;;;;;5029667;28;20415;-89
2022/03/10 10:22:24;;;;;;;2.77;2.20;;;21.90;52.10;;;;;;5029533;28;20414;-90
2022/03/10 10:25:00;;;;;;;2.30;2.10;;;21.90;52.10;;;;;;5030034;28;20411;-89
2022/03/10 10:27:34;;;;;;;2.40;1.80;;;21.90;52.10;;;;;;5029867;28;20509;-90
2022/03/10 10:30:22;;;;;;;;;;;;;;;;;;;;;
2022/03/10 10:32:55;;;;;;;3.47;2.27;;;21.90;52.10;;;;;;5048294;28;20425;-91
2022/03/10 10:35:24;;;;;;;2.97;2.20;;;21.80;52.10;;;;;;5030538;28;20413;-90
2022/03/10 10:37:56;;;;;;;3.40;2.30;;;21.90;52.10;;;;;;5030053;28;20501;-90
2022/03/10 10:40:27;;;;;;;2.73;2.10;;;21.90;52.10;;;;;;5029376;28;20468;-89
2022/03/10 10:42:56;;;;;;;2.97;2.03;;;21.80;52.10;;;;;;5029058;28;20454;-91
2022/03/10 10:45:41;;;;;;;2.30;2.10;;;21.80;52.10;;;;;;5030239;28;20422;-91
2022/03/10 10:48:09;;;;;;;2.60;2.10;;;21.90;52.20;;;;;;5030176;28;20410;-90
2022/03/10 10:50:41;;;;;;;3.10;2.40;;;21.80;52.10;;;;;;5029490;28;20469;-90
2022/03/10 10:53:08;;;;;;;2.03;1.83;;;21.80;52.10;;;;;;5047539;28;20498;-90
2022/03/10 10:55:38;;;;;;;2.53;2.33;;;21.80;52.10;;;;;;5030008;28;20406;-90
2022/03/10 10:58:17;;;;;;;1.90;1.80;;;21.80;52.10;;;;;;5030262;28;20480;-91
2022/03/10 11:00:45;;;;;;;3.00;2.10;;;21.80;52.10;;;;;;5029410;28;20409;-89
2022/03/10 11:03:31;;;;;;;2.37;2.17;;;21.80;52.10;;;;;;5028993;28;20450;-90
2022/03/10 11:05:58;;;;;;;3.43;2.37;;;21.80;52.10;;;;;;5046015;28;20422;-89
2022/03/10 11:08:26;;;;;;;2.10;1.90;;;21.80;52.20;;;;;;5046499;28;20406;-90
2022/03/10 11:10:53;;;;;;;2.03;1.83;;;21.80;52.20;;;;;;5029274;28;20529;-90
2022/03/10 11:13:20;;;;;;;2.30;2.10;;;21.80;52.20;;;;;;5019974;28;20423;-89
2022/03/10 11:15:46;;;;;;;2.30;2.00;;;21.80;52.20;;;;;;5026242;28;20431;-90
2022/03/10 11:18:14;;;;;;;4.07;2.00;;;21.80;52.20;;;;;;5027375;28;20403;-90
2022/03/10 11:20:50;;;;;;;2.33;2.13;;;21.80;52.20;;;;;;5009284;28;20910;-89
2022/03/10 11:23:54;;;;;;;3.40;2.63;;;21.80;52.20;;;;;;5025806;28;20522;-89
2022/03/10 11:26:29;;;;;;;2.63;2.30;;;21.80;52.20;;;;;;5034985;28;20441;-89
2022/03/10 11:28:57;;;;;;;4.60;3.20;;;21.80;52.20;;;;;;5024944;28;20426;-89
2022/03/10 11:31:23;;;;;;;6.20;3.70;;;21.80;52.30;;;;;;5025608;28;20466;-90
2022/03/10 11:33:49;;;;;;;7.57;4.77;;;21.80;52.30;;;;;;5026939;28;20410;-89
2022/03/10 11:36:27;;;;;;;9.50;4.80;;;21.80;52.30;;;;;;5025833;28;20411;-89
2022/03/10 11:38:58;;;;;;;26.43;7.30;;;21.80;52.30;;;;;;5026559;28;20148;-89
2022/03/10 11:41:26;;;;;;;24.30;9.33;;;21.80;52.30;;;;;;5027698;28;20417;-90
2022/03/10 11:43:57;;;;;;;34.17;9.87;;;21.80;52.30;;;;;;5025223;28;20473;-89
2022/03/10 11:46:28;;;;;;;41.67;14.30;;;21.80;52.30;;;;;;5025768;28;20422;-89
2022/03/10 11:49:14;;;;;;;43.03;17.63;;;21.80;52.40;;;;;;5025920;28;20403;-89
2022/03/10 11:51:57;;;;;;;65.67;20.77;;;21.80;52.40;;;;;;5024994;28;20471;-89
2022/03/10 11:54:31;;;;;;;76.33;28.70;;;21.80;52.40;;;;;;5025895;28;20411;-89
2022/03/10 11:56:58;;;;;;;85.13;31.67;;;21.80;52.50;;;;;;5024922;28;20530;-91
2022/03/10 11:59:31;;;;;;;87.73;32.67;;;21.80;53.00;;;;;;5025085;28;20474;-90
2022/03/10 12:01:57;;;;;;;98.50;35.10;;;21.80;52.50;;;;;;5027667;28;20403;-88
2022/03/10 12:04:37;;;;;;;96.17;38.33;;;21.80;52.50;;;;;;5027468;28;20472;-89
2022/03/10 12:07:04;;;;;;;120.53;41.17;;;21.80;52.50;;;;;;5039122;28;20418;-89
2022/03/10 12:09:33;;;;;;;106.70;40.07;;;21.80;52.50;;;;;;5030961;28;20418;-88
2022/03/10 12:12:18;;;;;;;91.17;40.23;;;21.80;52.60;;;;;;5030981;28;20526;-88
2022/03/10 12:14:45;;;;;;;116.57;44.70;;;21.80;52.60;;;;;;5048044;28;20414;-88
2022/03/10 12:17:44;;;;;;;106.03;42.30;;;21.80;52.60;;;;;;5048282;28;20423;-89
2022/03/10 12:20:15;;;;;;;97.33;40.97;;;21.80;52.60;;;;;;5025323;28;20430;-89
2022/03/10 12:23:03;;;;;;;110.10;42.87;;;21.80;52.60;;;;;;5048237;28;20971;-89
2022/03/10 12:25:32;;;;;;;97.07;42.90;;;21.80;52.70;;;;;;5030030;28;20445;-89
2022/03/10 12:27:58;;;;;;;115.63;45.13;;;21.80;52.70;;;;;;5029004;28;20403;-89
2022/03/10 12:30:26;;;;;;;109.07;42.10;;;21.80;53.30;;;;;;5011368;28;20469;-88
2022/03/10 12:32:54;;;;;;;102.07;42.03;;;21.80;52.80;;;;;;5017028;28;20219;-89
2022/03/10 12:35:30;;;;;;;120.00;45.90;;;21.80;52.80;;;;;;5025945;28;20479;-89
2022/03/10 12:37:56;;;;;;;98.17;40.20;;;21.80;52.90;;;;;;5010745;28;20418;-89
2022/03/10 12:40:25;;;;;;;105.67;41.80;;;21.80;52.80;;;;;;5015990;28;20912;-89
2022/03/10 12:42:52;;;;;;;99.70;43.90;;;21.80;52.80;;;;;;5030792;28;20824;-88
2022/03/10 12:45:22;;;;;;;94.53;40.57;;;21.80;52.80;;;;;;5039524;28;20452;-90
2022/03/10 12:47:54;;;;;;;106.77;40.17;;;21.80;52.80;;;;;;5050769;28;20410;-90
2022/03/10 12:50:20;;;;;;;96.13;42.87;;;21.80;52.80;;;;;;5033498;28;20418;-90
2022/03/10 12:52:46;;;;;;;88.67;40.47;;;21.80;52.80;;;;;;5051256;28;20410;-90
2022/03/10 12:55:12;;;;;;;104.57;37.90;;;21.80;52.80;;;;;;5033126;28;20476;-90
2022/03/10 12:57:38;;;;;;;83.93;37.23;;;21.80;52.70;;;;;;5051223;28;20191;-89
2022/03/10 13:00:25;;;;;;;81.57;36.70;;;21.80;52.70;;;;;;5049025;28;20198;-90
2022/03/10 13:02:58;;;;;;;86.50;34.40;;;21.80;52.70;;;;;;5022023;28;20468;-89
2022/03/10 13:05:27;;;;;;;83.67;33.93;;;21.80;52.70;;;;;;5033070;28;20413;-89